sensor_id;sensor_type;location;lat;lon;timestamp;P1;durP1;ratioP1;P2;durP2;ratioP2
549;SDS011;20066;48.764;9.176;2023-06-10T00:03:20;13.37;;;9.70;;
549;SDS011;20066;48.764;9.176;2023-06-10T00:06:47;12.83;;;9.00;;
549;SDS011;20066;48.764;9.176;2023-06-10T00:10:14;14.20;;;9.40;;
549;SDS011;20066;48.764;9.176;2023-06-10T00:13:40;12.90;;;9.80;;
549;SDS011;20066;48.764;9.176;2023-06-10T00:17:07;12.50;;;9.70;;
549;SDS011;20066;48.764;9.176;2023-06-10T00:20:37;14.80;;;10.00;;
549;SDS011;20066;48.764;9.176;2023-06-10T00:24:07;14.00;;;9.60;;
549;SDS011;20066;48.764;9.176;2023-06-10T00:27:35;11.80;;;9.30;;
549;SDS011;20066;48.764;9.176;2023-06-10T00:31:02;12.83;;;9.87;;
549;SDS011;20066;48.764;9.176;2023-06-10T00:34:28;13.13;;;9.30;;
549;SDS011;20066;48.764;9.176;2023-06-10T00:37:56;12.53;;;9.57;;
549;SDS011;20066;48.764;9.176;2023-06-10T00:41:22;10.50;;;8.70;;
549;SDS011;20066;48.764;9.176;2023-06-10T00:44:50;12.93;;;9.70;;
549;SDS011;20066;48.764;9.176;2023-06-10T00:48:17;10.03;;;8.83;;
549;SDS011;20066;48.764;9.176;2023-06-10T00:51:43;13.37;;;9.53;;
549;SDS011;20066;48.764;9.176;2023-06-10T00:55:14;11.73;;;9.17;;
549;SDS011;20066;48.764;9.176;2023-06-10T00:58:41;14.93;;;9.80;;
549;SDS011;20066;48.764;9.176;2023-06-10T01:02:08;12.20;;;9.27;;
549;SDS011;20066;48.764;9.176;2023-06-10T01:05:35;13.60;;;10.17;;
549;SDS011;20066;48.764;9.176;2023-06-10T01:09:13;11.90;;;9.40;;
549;SDS011;20066;48.764;9.176;2023-06-10T01:12:45;19.10;;;9.80;;
549;SDS011;20066;48.764;9.176;2023-06-10T01:16:12;11.40;;;8.77;;
549;SDS011;20066;48.764;9.176;2023-06-10T01:19:43;13.73;;;10.50;;
549;SDS011;20066;48.764;9.176;2023-06-10T01:23:14;13.27;;;9.90;;
549;SDS011;20066;48.764;9.176;2023-06-10T01:26:40;13.70;;;10.03;;
549;SDS011;20066;48.764;9.176;2023-06-10T01:30:11;12.63;;;9.20;;
549;SDS011;20066;48.764;9.176;2023-06-10T01:33:43;18.13;;;9.53;;
549;SDS011;20066;48.764;9.176;2023-06-10T01:37:12;16.33;;;9.50;;
549;SDS011;20066;48.764;9.176;2023-06-10T01:40:41;13.53;;;9.40;;
549;SDS011;20066;48.764;9.176;2023-06-10T01:44:08;12.00;;;9.00;;
549;SDS011;20066;48.764;9.176;2023-06-10T01:47:36;13.77;;;9.70;;
549;SDS011;20066;48.764;9.176;2023-06-10T01:51:02;12.77;;;8.87;;
549;SDS011;20066;48.764;9.176;2023-06-10T01:54:29;12.60;;;10.10;;
549;SDS011;20066;48.764;9.176;2023-06-10T01:57:57;15.23;;;9.77;;
549;SDS011;20066;48.764;9.176;2023-06-10T02:01:25;15.63;;;9.73;;
549;SDS011;20066;48.764;9.176;2023-06-10T02:04:52;12.03;;;9.70;;
549;SDS011;20066;48.764;9.176;2023-06-10T02:08:18;13.80;;;9.17;;
549;SDS011;20066;48.764;9.176;2023-06-10T02:11:45;12.40;;;10.00;;
549;SDS011;20066;48.764;9.176;2023-06-10T02:15:12;13.43;;;10.20;;
549;SDS011;20066;48.764;9.176;2023-06-10T02:18:39;12.30;;;9.60;;
549;SDS011;20066;48.764;9.176;2023-06-10T02:22:09;12.20;;;9.80;;
549;SDS011;20066;48.764;9.176;2023-06-10T02:25:35;12.20;;;9.43;;
549;SDS011;20066;48.764;9.176;2023-06-10T02:29:01;11.50;;;9.87;;
549;SDS011;20066;48.764;9.176;2023-06-10T02:32:29;13.00;;;8.80;;
549;SDS011;20066;48.764;9.176;2023-06-10T02:35:56;11.83;;;8.87;;
549;SDS011;20066;48.764;9.176;2023-06-10T02:39:22;11.13;;;8.53;;
549;SDS011;20066;48.764;9.176;2023-06-10T02:42:48;12.70;;;9.10;;
549;SDS011;20066;48.764;9.176;2023-06-10T02:46:15;12.57;;;9.80;;
549;SDS011;20066;48.764;9.176;2023-06-10T02:49:42;16.03;;;10.00;;
549;SDS011;20066;48.764;9.176;2023-06-10T02:53:08;13.13;;;10.13;;
549;SDS011;20066;48.764;9.176;2023-06-10T02:56:35;11.63;;;8.83;;
549;SDS011;20066;48.764;9.176;2023-06-10T03:00:01;18.43;;;9.87;;
549;SDS011;20066;48.764;9.176;2023-06-10T03:03:28;15.20;;;10.30;;
549;SDS011;20066;48.764;9.176;2023-06-10T03:06:56;12.80;;;9.77;;
549;SDS011;20066;48.764;9.176;2023-06-10T03:10:23;11.67;;;8.70;;
549;SDS011;20066;48.764;9.176;2023-06-10T03:13:50;13.87;;;9.77;;
549;SDS011;20066;48.764;9.176;2023-06-10T03:17:16;13.30;;;9.93;;
549;SDS011;20066;48.764;9.176;2023-06-10T03:20:42;12.10;;;10.13;;
549;SDS011;20066;48.764;9.176;2023-06-10T03:24:12;12.87;;;9.77;;
549;SDS011;20066;48.764;9.176;2023-06-10T03:27:41;14.27;;;9.17;;
549;SDS011;20066;48.764;9.176;2023-06-10T03:31:08;15.63;;;9.87;;
549;SDS011;20066;48.764;9.176;2023-06-10T03:34:34;13.30;;;10.07;;
549;SDS011;20066;48.764;9.176;2023-06-10T03:38:01;14.90;;;10.07;;
549;SDS011;20066;48.764;9.176;2023-06-10T03:41:29;20.10;;;8.70;;
549;SDS011;20066;48.764;9.176;2023-06-10T03:44:55;12.53;;;9.53;;
549;SDS011;20066;48.764;9.176;2023-06-10T03:48:21;11.63;;;9.63;;
549;SDS011;20066;48.764;9.176;2023-06-10T03:51:52;13.33;;;9.47;;
549;SDS011;20066;48.764;9.176;2023-06-10T03:55:19;15.30;;;9.47;;
549;SDS011;20066;48.764;9.176;2023-06-10T03:58:46;11.50;;;9.17;;
549;SDS011;20066;48.764;9.176;2023-06-10T04:02:13;12.53;;;9.23;;
549;SDS011;20066;48.764;9.176;2023-06-10T04:05:41;12.20;;;8.67;;
549;SDS011;20066;48.764;9.176;2023-06-10T04:09:09;12.77;;;9.07;;
549;SDS011;20066;48.764;9.176;2023-06-10T04:12:36;11.47;;;9.43;;
549;SDS011;20066;48.764;9.176;2023-06-10T04:16:04;16.20;;;9.80;;
549;SDS011;20066;48.764;9.176;2023-06-10T04:19:32;12.50;;;9.17;;
549;SDS011;20066;48.764;9.176;2023-06-10T04:22:59;12.63;;;9.87;;
549;SDS011;20066;48.764;9.176;2023-06-10T04:26:25;13.83;;;10.13;;
549;SDS011;20066;48.764;9.176;2023-06-10T04:29:52;10.60;;;8.67;;
549;SDS011;20066;48.764;9.176;2023-06-10T04:33:19;11.80;;;9.00;;
549;SDS011;20066;48.764;9.176;2023-06-10T04:36:46;10.03;;;8.00;;
549;SDS011;20066;48.764;9.176;2023-06-10T04:40:12;14.30;;;9.43;;
549;SDS011;20066;48.764;9.176;2023-06-10T04:43:38;12.00;;;8.40;;
549;SDS011;20066;48.764;9.176;2023-06-10T04:47:05;13.40;;;9.47;;
549;SDS011;20066;48.764;9.176;2023-06-10T04:50:33;11.00;;;8.93;;
549;SDS011;20066;48.764;9.176;2023-06-10T04:54:04;11.97;;;8.83;;
549;SDS011;20066;48.764;9.176;2023-06-10T04:57:36;9.70;;;8.17;;
549;SDS011;20066;48.764;9.176;2023-06-10T05:01:04;12.37;;;9.20;;
549;SDS011;20066;48.764;9.176;2023-06-10T05:04:34;14.10;;;8.90;;
549;SDS011;20066;48.764;9.176;2023-06-10T05:08:19;11.70;;;8.60;;
549;SDS011;20066;48.764;9.176;2023-06-10T05:11:46;11.17;;;8.37;;
549;SDS011;20066;48.764;9.176;2023-06-10T05:15:12;12.67;;;9.53;;
549;SDS011;20066;48.764;9.176;2023-06-10T05:18:39;10.70;;;7.47;;
549;SDS011;20066;48.764;9.176;2023-06-10T05:22:06;10.60;;;7.60;;
549;SDS011;20066;48.764;9.176;2023-06-10T05:25:33;11.03;;;7.67;;
549;SDS011;20066;48.764;9.176;2023-06-10T05:28:59;10.60;;;7.90;;
549;SDS011;20066;48.764;9.176;2023-06-10T05:32:25;9.87;;;7.70;;
549;SDS011;20066;48.764;9.176;2023-06-10T05:35:52;12.07;;;8.13;;
549;SDS011;20066;48.764;9.176;2023-06-10T05:39:19;13.30;;;8.23;;
549;SDS011;20066;48.764;9.176;2023-06-10T05:42:46;10.60;;;7.57;;
549;SDS011;20066;48.764;9.176;2023-06-10T05:46:12;13.00;;;8.00;;
549;SDS011;20066;48.764;9.176;2023-06-10T05:49:39;10.10;;;7.77;;
549;SDS011;20066;48.764;9.176;2023-06-10T05:53:06;12.97;;;8.40;;
549;SDS011;20066;48.764;9.176;2023-06-10T05:56:34;10.60;;;7.50;;
549;SDS011;20066;48.764;9.176;2023-06-10T06:00:01;11.50;;;7.97;;
549;SDS011;20066;48.764;9.176;2023-06-10T06:03:27;14.00;;;8.30;;
549;SDS011;20066;48.764;9.176;2023-06-10T06:06:53;12.10;;;6.90;;
549;SDS011;20066;48.764;9.176;2023-06-10T06:10:20;11.37;;;8.20;;
549;SDS011;20066;48.764;9.176;2023-06-10T06:13:47;11.27;;;7.50;;
549;SDS011;20066;48.764;9.176;2023-06-10T06:17:15;10.10;;;7.67;;
549;SDS011;20066;48.764;9.176;2023-06-10T06:20:41;10.80;;;7.50;;
549;SDS011;20066;48.764;9.176;2023-06-10T06:24:08;12.07;;;8.00;;
549;SDS011;20066;48.764;9.176;2023-06-10T06:27:35;11.20;;;7.80;;
549;SDS011;20066;48.764;9.176;2023-06-10T06:31:02;14.00;;;7.90;;
549;SDS011;20066;48.764;9.176;2023-06-10T06:34:29;12.00;;;7.17;;
549;SDS011;20066;48.764;9.176;2023-06-10T06:37:57;11.30;;;8.37;;
549;SDS011;20066;48.764;9.176;2023-06-10T06:41:25;10.20;;;7.50;;
549;SDS011;20066;48.764;9.176;2023-06-10T06:44:52;9.60;;;6.93;;
549;SDS011;20066;48.764;9.176;2023-06-10T06:48:19;10.13;;;7.43;;
549;SDS011;20066;48.764;9.176;2023-06-10T06:51:46;11.30;;;7.63;;
549;SDS011;20066;48.764;9.176;2023-06-10T06:55:12;10.63;;;7.33;;
549;SDS011;20066;48.764;9.176;2023-06-10T06:58:38;10.30;;;7.10;;
549;SDS011;20066;48.764;9.176;2023-06-10T07:02:05;11.20;;;7.37;;
549;SDS011;20066;48.764;9.176;2023-06-10T07:05:33;10.67;;;7.63;;
549;SDS011;20066;48.764;9.176;2023-06-10T07:09:03;9.63;;;6.67;;
549;SDS011;20066;48.764;9.176;2023-06-10T07:12:30;11.10;;;7.03;;
549;SDS011;20066;48.764;9.176;2023-06-10T07:15:56;12.07;;;8.00;;
549;SDS011;20066;48.764;9.176;2023-06-10T07:19:22;12.23;;;6.83;;
549;SDS011;20066;48.764;9.176;2023-06-10T07:22:50;15.43;;;7.63;;
549;SDS011;20066;48.764;9.176;2023-06-10T07:26:21;9.23;;;6.30;;
549;SDS011;20066;48.764;9.176;2023-06-10T07:29:47;10.63;;;6.77;;
549;SDS011;20066;48.764;9.176;2023-06-10T07:33:14;10.27;;;6.80;;
549;SDS011;20066;48.764;9.176;2023-06-10T07:36:40;8.70;;;6.50;;
549;SDS011;20066;48.764;9.176;2023-06-10T07:40:08;11.60;;;6.60;;
549;SDS011;20066;48.764;9.176;2023-06-10T07:43:35;9.90;;;6.87;;
549;SDS011;20066;48.764;9.176;2023-06-10T07:47:01;9.13;;;6.97;;
549;SDS011;20066;48.764;9.176;2023-06-10T07:50:27;9.33;;;6.10;;
549;SDS011;20066;48.764;9.176;2023-06-10T07:53:54;9.30;;;6.57;;
549;SDS011;20066;48.764;9.176;2023-06-10T07:57:21;10.77;;;6.70;;
549;SDS011;20066;48.764;9.176;2023-06-10T08:00:48;10.50;;;6.70;;
549;SDS011;20066;48.764;9.176;2023-06-10T08:04:14;9.57;;;6.50;;
549;SDS011;20066;48.764;9.176;2023-06-10T08:07:41;13.23;;;7.37;;
549;SDS011;20066;48.764;9.176;2023-06-10T08:11:10;9.73;;;7.40;;
549;SDS011;20066;48.764;9.176;2023-06-10T08:14:41;9.77;;;7.20;;
549;SDS011;20066;48.764;9.176;2023-06-10T08:18:07;10.07;;;7.10;;
549;SDS011;20066;48.764;9.176;2023-06-10T08:21:35;11.27;;;7.20;;
549;SDS011;20066;48.764;9.176;2023-06-10T08:25:01;10.63;;;7.20;;
549;SDS011;20066;48.764;9.176;2023-06-10T08:28:28;9.77;;;6.80;;
549;SDS011;20066;48.764;9.176;2023-06-10T08:31:56;7.90;;;6.10;;
549;SDS011;20066;48.764;9.176;2023-06-10T08:35:23;10.60;;;6.80;;
549;SDS011;20066;48.764;9.176;2023-06-10T08:38:49;10.70;;;6.80;;
549;SDS011;20066;48.764;9.176;2023-06-10T08:42:17;10.20;;;6.30;;
549;SDS011;20066;48.764;9.176;2023-06-10T08:45:49;9.60;;;6.57;;
549;SDS011;20066;48.764;9.176;2023-06-10T08:49:21;8.80;;;6.27;;
549;SDS011;20066;48.764;9.176;2023-06-10T08:52:50;10.00;;;6.43;;
549;SDS011;20066;48.764;9.176;2023-06-10T08:56:21;8.70;;;6.37;;
549;SDS011;20066;48.764;9.176;2023-06-10T08:59:52;8.33;;;6.00;;
549;SDS011;20066;48.764;9.176;2023-06-10T09:03:20;8.00;;;5.37;;
549;SDS011;20066;48.764;9.176;2023-06-10T09:06:49;10.70;;;6.00;;
549;SDS011;20066;48.764;9.176;2023-06-10T09:10:16;7.50;;;5.03;;
549;SDS011;20066;48.764;9.176;2023-06-10T09:13:42;7.33;;;5.10;;
549;SDS011;20066;48.764;9.176;2023-06-10T09:17:09;13.13;;;5.57;;
549;SDS011;20066;48.764;9.176;2023-06-10T09:20:37;13.60;;;6.00;;
549;SDS011;20066;48.764;9.176;2023-06-10T09:24:04;9.00;;;6.00;;
549;SDS011;20066;48.764;9.176;2023-06-10T09:27:32;10.43;;;6.17;;
549;SDS011;20066;48.764;9.176;2023-06-10T09:31:02;8.57;;;5.80;;
549;SDS011;20066;48.764;9.176;2023-06-10T09:34:28;10.00;;;6.90;;
549;SDS011;20066;48.764;9.176;2023-06-10T09:37:57;9.13;;;6.27;;
549;SDS011;20066;48.764;9.176;2023-06-10T09:41:29;8.63;;;6.10;;
549;SDS011;20066;48.764;9.176;2023-06-10T09:44:59;15.77;;;5.43;;
549;SDS011;20066;48.764;9.176;2023-06-10T09:48:26;9.60;;;6.23;;
549;SDS011;20066;48.764;9.176;2023-06-10T09:51:56;7.47;;;5.73;;
549;SDS011;20066;48.764;9.176;2023-06-10T09:55:23;8.23;;;5.80;;
549;SDS011;20066;48.764;9.176;2023-06-10T09:58:59;13.30;;;6.67;;
549;SDS011;20066;48.764;9.176;2023-06-10T10:02:26;8.77;;;5.40;;
549;SDS011;20066;48.764;9.176;2023-06-10T10:05:57;7.40;;;5.50;;
549;SDS011;20066;48.764;9.176;2023-06-10T10:09:25;8.67;;;5.80;;
549;SDS011;20066;48.764;9.176;2023-06-10T10:12:54;9.73;;;6.60;;
549;SDS011;20066;48.764;9.176;2023-06-10T10:16:21;8.93;;;6.77;;
549;SDS011;20066;48.764;9.176;2023-06-10T10:19:50;10.90;;;6.50;;
549;SDS011;20066;48.764;9.176;2023-06-10T10:23:23;8.97;;;6.30;;
549;SDS011;20066;48.764;9.176;2023-06-10T10:26:55;9.03;;;7.23;;
549;SDS011;20066;48.764;9.176;2023-06-10T10:30:26;10.00;;;6.87;;
549;SDS011;20066;48.764;9.176;2023-06-10T10:33:55;11.20;;;6.50;;
549;SDS011;20066;48.764;9.176;2023-06-10T10:37:28;9.20;;;6.50;;
549;SDS011;20066;48.764;9.176;2023-06-10T10:40:55;11.07;;;6.27;;
549;SDS011;20066;48.764;9.176;2023-06-10T10:44:24;11.27;;;6.17;;
549;SDS011;20066;48.764;9.176;2023-06-10T10:47:51;9.03;;;6.13;;
549;SDS011;20066;48.764;9.176;2023-06-10T10:51:19;9.87;;;6.30;;
549;SDS011;20066;48.764;9.176;2023-06-10T10:54:46;8.07;;;5.63;;
549;SDS011;20066;48.764;9.176;2023-06-10T10:58:26;10.43;;;6.20;;
549;SDS011;20066;48.764;9.176;2023-06-10T11:01:52;7.77;;;5.87;;
549;SDS011;20066;48.764;9.176;2023-06-10T11:05:30;7.40;;;6.07;;
549;SDS011;20066;48.764;9.176;2023-06-10T11:08:58;9.83;;;6.10;;
549;SDS011;20066;48.764;9.176;2023-06-10T11:12:40;9.97;;;6.40;;
549;SDS011;20066;48.764;9.176;2023-06-10T11:16:27;7.03;;;5.30;;
549;SDS011;20066;48.764;9.176;2023-06-10T11:19:54;8.10;;;6.63;;
549;SDS011;20066;48.764;9.176;2023-06-10T11:23:29;12.80;;;7.17;;
549;SDS011;20066;48.764;9.176;2023-06-10T11:30:48;7.50;;;5.27;;
549;SDS011;20066;48.764;9.176;2023-06-10T11:34:24;8.57;;;6.53;;
549;SDS011;20066;48.764;9.176;2023-06-10T11:37:51;9.80;;;6.70;;
549;SDS011;20066;48.764;9.176;2023-06-10T11:41:20;9.43;;;6.87;;
549;SDS011;20066;48.764;9.176;2023-06-10T11:44:48;8.80;;;6.53;;
549;SDS011;20066;48.764;9.176;2023-06-10T11:48:21;9.17;;;6.87;;
549;SDS011;20066;48.764;9.176;2023-06-10T11:51:48;7.93;;;5.90;;
549;SDS011;20066;48.764;9.176;2023-06-10T11:55:14;6.90;;;5.17;;
549;SDS011;20066;48.764;9.176;2023-06-10T11:58:41;7.53;;;5.80;;
549;SDS011;20066;48.764;9.176;2023-06-10T12:02:15;9.20;;;6.00;;
549;SDS011;20066;48.764;9.176;2023-06-10T12:05:54;8.87;;;5.97;;
549;SDS011;20066;48.764;9.176;2023-06-10T12:09:22;9.40;;;6.17;;
549;SDS011;20066;48.764;9.176;2023-06-10T12:12:53;7.83;;;6.17;;
549;SDS011;20066;48.764;9.176;2023-06-10T12:16:19;8.60;;;5.80;;
549;SDS011;20066;48.764;9.176;2023-06-10T12:19:48;6.83;;;5.83;;
549;SDS011;20066;48.764;9.176;2023-06-10T12:23:17;9.10;;;5.70;;
549;SDS011;20066;48.764;9.176;2023-06-10T12:26:44;8.80;;;6.20;;
549;SDS011;20066;48.764;9.176;2023-06-10T12:30:18;8.10;;;6.53;;
549;SDS011;20066;48.764;9.176;2023-06-10T12:33:46;8.00;;;5.70;;
549;SDS011;20066;48.764;9.176;2023-06-10T12:37:14;9.00;;;5.67;;
549;SDS011;20066;48.764;9.176;2023-06-10T12:40:40;6.97;;;5.60;;
549;SDS011;20066;48.764;9.176;2023-06-10T12:44:06;9.00;;;6.30;;
549;SDS011;20066;48.764;9.176;2023-06-10T12:47:36;8.20;;;5.37;;
549;SDS011;20066;48.764;9.176;2023-06-10T12:51:04;8.00;;;5.97;;
549;SDS011;20066;48.764;9.176;2023-06-10T12:54:31;9.80;;;5.93;;
549;SDS011;20066;48.764;9.176;2023-06-10T12:57:57;12.17;;;5.90;;
549;SDS011;20066;48.764;9.176;2023-06-10T13:01:24;8.90;;;5.30;;
549;SDS011;20066;48.764;9.176;2023-06-10T13:04:51;7.40;;;5.80;;
549;SDS011;20066;48.764;9.176;2023-06-10T13:08:19;7.03;;;5.20;;
549;SDS011;20066;48.764;9.176;2023-06-10T13:11:45;8.00;;;5.47;;
549;SDS011;20066;48.764;9.176;2023-06-10T13:15:15;7.40;;;5.20;;
549;SDS011;20066;48.764;9.176;2023-06-10T13:18:42;7.20;;;5.20;;
549;SDS011;20066;48.764;9.176;2023-06-10T13:22:08;7.23;;;5.37;;
549;SDS011;20066;48.764;9.176;2023-06-10T13:25:36;6.70;;;5.30;;
549;SDS011;20066;48.764;9.176;2023-06-10T13:29:02;7.67;;;5.70;;
549;SDS011;20066;48.764;9.176;2023-06-10T13:32:28;7.17;;;5.30;;
549;SDS011;20066;48.764;9.176;2023-06-10T13:35:55;7.10;;;5.30;;
549;SDS011;20066;48.764;9.176;2023-06-10T13:39:21;8.13;;;5.10;;
549;SDS011;20066;48.764;9.176;2023-06-10T13:42:49;8.43;;;5.30;;
549;SDS011;20066;48.764;9.176;2023-06-10T13:46:16;7.10;;;4.73;;
549;SDS011;20066;48.764;9.176;2023-06-10T13:49:42;6.50;;;4.40;;
549;SDS011;20066;48.764;9.176;2023-06-10T13:53:12;6.30;;;4.90;;
549;SDS011;20066;48.764;9.176;2023-06-10T13:56:41;8.30;;;4.70;;
549;SDS011;20066;48.764;9.176;2023-06-10T14:00:09;8.20;;;5.50;;
549;SDS011;20066;48.764;9.176;2023-06-10T14:03:36;6.97;;;5.23;;
549;SDS011;20066;48.764;9.176;2023-06-10T14:07:02;7.13;;;5.50;;
549;SDS011;20066;48.764;9.176;2023-06-10T14:10:29;10.80;;;4.97;;
549;SDS011;20066;48.764;9.176;2023-06-10T14:14:00;7.70;;;5.70;;
549;SDS011;20066;48.764;9.176;2023-06-10T14:17:28;7.90;;;5.53;;
549;SDS011;20066;48.764;9.176;2023-06-10T14:20:54;6.47;;;4.83;;
549;SDS011;20066;48.764;9.176;2023-06-10T14:24:21;8.07;;;5.37;;
549;SDS011;20066;48.764;9.176;2023-06-10T14:27:48;9.80;;;4.80;;
549;SDS011;20066;48.764;9.176;2023-06-10T14:31:14;9.33;;;5.40;;
549;SDS011;20066;48.764;9.176;2023-06-10T14:34:42;8.37;;;5.20;;
549;SDS011;20066;48.764;9.176;2023-06-10T14:38:09;6.17;;;4.77;;
549;SDS011;20066;48.764;9.176;2023-06-10T14:41:36;6.33;;;4.97;;
549;SDS011;20066;48.764;9.176;2023-06-10T14:45:02;5.60;;;4.57;;
549;SDS011;20066;48.764;9.176;2023-06-10T14:48:30;6.97;;;5.23;;
549;SDS011;20066;48.764;9.176;2023-06-10T14:51:58;7.23;;;5.77;;
549;SDS011;20066;48.764;9.176;2023-06-10T14:55:24;7.67;;;5.60;;
549;SDS011;20066;48.764;9.176;2023-06-10T14:58:51;7.20;;;5.70;;
549;SDS011;20066;48.764;9.176;2023-06-10T15:02:18;8.10;;;5.70;;
549;SDS011;20066;48.764;9.176;2023-06-10T15:05:44;8.93;;;6.13;;
549;SDS011;20066;48.764;9.176;2023-06-10T15:09:12;7.43;;;5.70;;
549;SDS011;20066;48.764;9.176;2023-06-10T15:12:39;7.60;;;6.17;;
549;SDS011;20066;48.764;9.176;2023-06-10T15:16:05;8.40;;;6.20;;
549;SDS011;20066;48.764;9.176;2023-06-10T15:19:31;8.43;;;6.00;;
549;SDS011;20066;48.764;9.176;2023-06-10T15:22:58;11.40;;;5.83;;
549;SDS011;20066;48.764;9.176;2023-06-10T15:26:26;9.97;;;6.40;;
549;SDS011;20066;48.764;9.176;2023-06-10T15:29:52;7.53;;;6.20;;
549;SDS011;20066;48.764;9.176;2023-06-10T15:33:22;8.80;;;6.50;;
549;SDS011;20066;48.764;9.176;2023-06-10T15:36:48;10.10;;;6.27;;
549;SDS011;20066;48.764;9.176;2023-06-10T15:40:14;6.83;;;6.00;;
549;SDS011;20066;48.764;9.176;2023-06-10T15:43:42;11.20;;;5.63;;
549;SDS011;20066;48.764;9.176;2023-06-10T15:47:09;9.50;;;6.37;;
549;SDS011;20066;48.764;9.176;2023-06-10T15:50:35;10.10;;;6.03;;
549;SDS011;20066;48.764;9.176;2023-06-10T15:54:03;8.27;;;5.70;;
549;SDS011;20066;48.764;9.176;2023-06-10T15:57:29;7.17;;;5.83;;
549;SDS011;20066;48.764;9.176;2023-06-10T16:00:57;8.17;;;5.97;;
549;SDS011;20066;48.764;9.176;2023-06-10T16:04:23;6.47;;;5.20;;
549;SDS011;20066;48.764;9.176;2023-06-10T16:07:54;7.47;;;5.37;;
549;SDS011;20066;48.764;9.176;2023-06-10T16:11:20;6.73;;;5.17;;
549;SDS011;20066;48.764;9.176;2023-06-10T16:14:47;6.80;;;5.10;;
549;SDS011;20066;48.764;9.176;2023-06-10T16:18:14;6.37;;;5.30;;
549;SDS011;20066;48.764;9.176;2023-06-10T16:21:41;6.77;;;5.60;;
549;SDS011;20066;48.764;9.176;2023-06-10T16:25:07;8.53;;;5.00;;
549;SDS011;20066;48.764;9.176;2023-06-10T16:28:34;8.67;;;5.93;;
549;SDS011;20066;48.764;9.176;2023-06-10T16:32:00;7.20;;;4.80;;
549;SDS011;20066;48.764;9.176;2023-06-10T16:35:29;7.03;;;5.10;;
549;SDS011;20066;48.764;9.176;2023-06-10T16:38:55;8.60;;;5.47;;
549;SDS011;20066;48.764;9.176;2023-06-10T16:42:21;6.80;;;4.70;;
549;SDS011;20066;48.764;9.176;2023-06-10T16:45:49;6.73;;;5.40;;
549;SDS011;20066;48.764;9.176;2023-06-10T16:49:15;7.67;;;5.20;;
549;SDS011;20066;48.764;9.176;2023-06-10T16:52:43;5.77;;;4.80;;
549;SDS011;20066;48.764;9.176;2023-06-10T16:56:09;6.10;;;4.50;;
549;SDS011;20066;48.764;9.176;2023-06-10T16:59:36;5.50;;;4.33;;
549;SDS011;20066;48.764;9.176;2023-06-10T17:03:03;6.23;;;4.23;;
549;SDS011;20066;48.764;9.176;2023-06-10T17:06:29;5.77;;;4.40;;
549;SDS011;20066;48.764;9.176;2023-06-10T17:10:02;7.60;;;5.37;;
549;SDS011;20066;48.764;9.176;2023-06-10T17:13:28;5.83;;;4.90;;
549;SDS011;20066;48.764;9.176;2023-06-10T17:16:55;6.10;;;4.90;;
549;SDS011;20066;48.764;9.176;2023-06-10T17:20:22;9.07;;;5.60;;
549;SDS011;20066;48.764;9.176;2023-06-10T17:23:49;6.50;;;5.10;;
549;SDS011;20066;48.764;9.176;2023-06-10T17:27:16;6.77;;;4.90;;
549;SDS011;20066;48.764;9.176;2023-06-10T17:30:43;6.30;;;5.27;;
549;SDS011;20066;48.764;9.176;2023-06-10T17:34:09;6.93;;;5.63;;
549;SDS011;20066;48.764;9.176;2023-06-10T17:37:36;7.87;;;5.00;;
549;SDS011;20066;48.764;9.176;2023-06-10T17:41:04;5.97;;;5.07;;
549;SDS011;20066;48.764;9.176;2023-06-10T17:44:33;8.93;;;5.50;;
549;SDS011;20066;48.764;9.176;2023-06-10T17:47:59;9.37;;;6.47;;
549;SDS011;20066;48.764;9.176;2023-06-10T17:51:26;10.00;;;6.40;;
549;SDS011;20066;48.764;9.176;2023-06-10T17:54:52;7.20;;;5.80;;
549;SDS011;20066;48.764;9.176;2023-06-10T17:58:19;9.93;;;5.53;;
549;SDS011;20066;48.764;9.176;2023-06-10T18:01:47;7.30;;;5.60;;
549;SDS011;20066;48.764;9.176;2023-06-10T18:05:13;8.50;;;5.90;;
549;SDS011;20066;48.764;9.176;2023-06-10T18:08:40;7.27;;;5.47;;
549;SDS011;20066;48.764;9.176;2023-06-10T18:12:06;8.60;;;5.17;;
549;SDS011;20066;48.764;9.176;2023-06-10T18:15:33;10.17;;;5.07;;
549;SDS011;20066;48.764;9.176;2023-06-10T18:19:01;17.23;;;6.00;;
549;SDS011;20066;48.764;9.176;2023-06-10T18:22:28;7.87;;;5.07;;
549;SDS011;20066;48.764;9.176;2023-06-10T18:25:55;7.87;;;5.70;;
549;SDS011;20066;48.764;9.176;2023-06-10T18:29:22;8.67;;;5.83;;
549;SDS011;20066;48.764;9.176;2023-06-10T18:32:49;7.60;;;5.40;;
549;SDS011;20066;48.764;9.176;2023-06-10T18:36:17;8.50;;;4.97;;
549;SDS011;20066;48.764;9.176;2023-06-10T18:39:43;15.87;;;10.37;;
549;SDS011;20066;48.764;9.176;2023-06-10T18:43:10;13.03;;;6.40;;
549;SDS011;20066;48.764;9.176;2023-06-10T18:46:37;7.67;;;5.90;;
549;SDS011;20066;48.764;9.176;2023-06-10T18:50:22;10.00;;;5.83;;
549;SDS011;20066;48.764;9.176;2023-06-10T18:53:50;8.30;;;5.60;;
549;SDS011;20066;48.764;9.176;2023-06-10T18:57:16;7.67;;;5.73;;
549;SDS011;20066;48.764;9.176;2023-06-10T19:00:43;10.10;;;5.53;;
549;SDS011;20066;48.764;9.176;2023-06-10T19:04:10;12.50;;;6.27;;
549;SDS011;20066;48.764;9.176;2023-06-10T19:07:40;8.00;;;5.80;;
549;SDS011;20066;48.764;9.176;2023-06-10T19:11:07;7.00;;;5.30;;
549;SDS011;20066;48.764;9.176;2023-06-10T19:14:34;11.40;;;5.87;;
549;SDS011;20066;48.764;9.176;2023-06-10T19:18:00;8.73;;;5.70;;
549;SDS011;20066;48.764;9.176;2023-06-10T19:21:26;16.67;;;6.57;;
549;SDS011;20066;48.764;9.176;2023-06-10T19:25:00;7.00;;;5.17;;
549;SDS011;20066;48.764;9.176;2023-06-10T19:28:29;8.97;;;5.90;;
549;SDS011;20066;48.764;9.176;2023-06-10T19:31:56;7.63;;;5.60;;
549;SDS011;20066;48.764;9.176;2023-06-10T19:35:22;8.70;;;6.00;;
549;SDS011;20066;48.764;9.176;2023-06-10T19:38:48;8.00;;;6.50;;
549;SDS011;20066;48.764;9.176;2023-06-10T19:42:16;8.60;;;6.20;;
549;SDS011;20066;48.764;9.176;2023-06-10T19:45:42;9.50;;;6.00;;
549;SDS011;20066;48.764;9.176;2023-06-10T19:49:09;9.47;;;6.73;;
549;SDS011;20066;48.764;9.176;2023-06-10T19:52:36;11.77;;;6.87;;
549;SDS011;20066;48.764;9.176;2023-06-10T19:56:02;9.47;;;6.80;;
549;SDS011;20066;48.764;9.176;2023-06-10T19:59:31;11.40;;;6.77;;
549;SDS011;20066;48.764;9.176;2023-06-10T20:02:57;11.67;;;7.90;;
549;SDS011;20066;48.764;9.176;2023-06-10T20:06:24;13.53;;;8.43;;
549;SDS011;20066;48.764;9.176;2023-06-10T20:09:50;10.10;;;7.03;;
549;SDS011;20066;48.764;9.176;2023-06-10T20:13:17;16.60;;;9.33;;
549;SDS011;20066;48.764;9.176;2023-06-10T20:16:45;12.67;;;7.73;;
549;SDS011;20066;48.764;9.176;2023-06-10T20:20:13;11.30;;;7.33;;
549;SDS011;20066;48.764;9.176;2023-06-10T20:23:44;9.80;;;7.17;;
549;SDS011;20066;48.764;9.176;2023-06-10T20:27:11;10.00;;;6.73;;
549;SDS011;20066;48.764;9.176;2023-06-10T20:30:37;10.13;;;7.40;;
549;SDS011;20066;48.764;9.176;2023-06-10T20:34:05;10.23;;;7.27;;
549;SDS011;20066;48.764;9.176;2023-06-10T20:37:32;12.53;;;8.33;;
549;SDS011;20066;48.764;9.176;2023-06-10T20:40:59;13.03;;;8.00;;
549;SDS011;20066;48.764;9.176;2023-06-10T20:44:25;16.00;;;8.90;;
549;SDS011;20066;48.764;9.176;2023-06-10T20:47:52;12.43;;;7.70;;
549;SDS011;20066;48.764;9.176;2023-06-10T20:51:20;13.13;;;8.20;;
549;SDS011;20066;48.764;9.176;2023-06-10T20:54:46;11.80;;;8.30;;
549;SDS011;20066;48.764;9.176;2023-06-10T20:58:12;8.67;;;6.77;;
549;SDS011;20066;48.764;9.176;2023-06-10T21:01:39;11.50;;;6.40;;
549;SDS011;20066;48.764;9.176;2023-06-10T21:05:05;10.80;;;6.60;;
549;SDS011;20066;48.764;9.176;2023-06-10T21:08:33;8.63;;;6.37;;
549;SDS011;20066;48.764;9.176;2023-06-10T21:12:00;8.40;;;6.30;;
549;SDS011;20066;48.764;9.176;2023-06-10T21:15:26;8.10;;;5.60;;
549;SDS011;20066;48.764;9.176;2023-06-10T21:18:55;8.80;;;5.80;;
549;SDS011;20066;48.764;9.176;2023-06-10T21:22:21;9.50;;;5.70;;
549;SDS011;20066;48.764;9.176;2023-06-10T21:25:49;9.50;;;6.23;;